createdAt,value
2023-05-01T00:01:06.907Z,73.11
2023-05-01T00:03:33.765Z,73.38
2023-05-01T00:06:01.711Z,73.60
2023-05-01T00:08:29.523Z,72.74
2023-05-01T00:10:56.030Z,74.00
2023-05-01T00:13:22.633Z,71.77
2023-05-01T00:15:49.176Z,73.77
2023-05-01T00:18:15.936Z,74.05
2023-05-01T00:20:42.415Z,73.60
2023-05-01T00:23:08.891Z,72.57
2023-05-01T00:25:36.577Z,73.71
2023-05-01T00:28:03.014Z,73.22
2023-05-01T00:30:29.483Z,73.30
2023-05-01T00:32:55.942Z,74.54
2023-05-01T00:35:22.501Z,73.54
2023-05-01T00:37:48.949Z,73.87
2023-05-01T00:40:15.515Z,73.74
2023-05-01T00:42:43.305Z,72.75
2023-05-01T00:45:10.520Z,70.03
2023-05-01T00:47:37.246Z,71.92
2023-05-01T00:50:04.092Z,72.55
2023-05-01T00:52:30.760Z,70.02
2023-05-01T00:54:57.927Z,67.64
2023-05-01T00:57:24.893Z,69.71
2023-05-01T00:59:52.690Z,68.84
2023-05-01T01:02:19.831Z,68.40
2023-05-01T01:04:48.111Z,66.76
2023-05-01T01:07:19.162Z,67.54
2023-05-01T01:10:01.062Z,68.30
2023-05-01T01:12:32.316Z,66.25
2023-05-01T01:15:12.848Z,66.78
2023-05-01T01:17:53.126Z,65.59
2023-05-01T01:20:31.201Z,66.45
2023-05-01T01:23:13.366Z,66.82
2023-05-01T01:26:12.075Z,67.20
2023-05-01T01:29:13.986Z,68.08
2023-05-01T01:31:53.640Z,66.22
2023-05-01T01:34:26.414Z,66.20
2023-05-01T01:37:00.546Z,66.46
2023-05-01T01:39:31.683Z,66.04
2023-05-01T01:41:58.841Z,64.82
2023-05-01T01:44:30.594Z,65.54
2023-05-01T01:46:59.476Z,67.13
2023-05-01T01:49:29.286Z,67.74
2023-05-01T01:51:56.828Z,65.54
2023-05-01T01:54:29.814Z,66.34
2023-05-01T01:56:57.682Z,66.53
2023-05-01T01:59:25.892Z,63.73
2023-05-01T02:01:56.074Z,67.31
2023-05-01T02:04:24.594Z,65.23
2023-05-01T02:06:54.092Z,64.55
2023-05-01T02:09:22.963Z,67.95
2023-05-01T02:11:50.765Z,65.97
2023-05-01T02:14:18.716Z,66.50
2023-05-01T02:16:46.380Z,66.65
2023-05-01T02:19:14.528Z,68.24
2023-05-01T02:21:42.074Z,69.96
2023-05-01T02:24:11.493Z,67.70
2023-05-01T02:26:42.607Z,69.90
2023-05-01T02:29:09.795Z,65.98
2023-05-01T02:31:36.385Z,68.82
2023-05-01T02:34:03.970Z,68.64
2023-05-01T02:36:30.409Z,71.17
2023-05-01T02:38:56.847Z,69.78
2023-05-01T02:41:26.253Z,70.31
2023-05-01T02:43:58.088Z,71.70
2023-05-01T02:46:27.023Z,72.86
2023-05-01T02:48:55.006Z,72.84
2023-05-01T02:51:23.372Z,71.72
2023-05-01T02:53:50.188Z,73.87
2023-05-01T02:56:21.024Z,72.69
2023-05-01T02:58:49.057Z,73.63
2023-05-01T03:01:15.516Z,73.26
2023-05-01T03:03:42.019Z,74.47
2023-05-01T03:06:08.512Z,75.03
2023-05-01T03:08:35.097Z,75.60
2023-05-01T03:11:04.948Z,76.10
2023-05-01T03:13:31.320Z,75.43
2023-05-01T03:15:59.807Z,75.19
2023-05-01T03:18:26.233Z,75.63
2023-05-01T03:20:52.774Z,77.61
2023-05-01T03:23:19.531Z,76.23
2023-05-01T03:25:46.016Z,78.42
2023-05-01T03:28:12.834Z,76.62
2023-05-01T03:30:39.751Z,76.89
2023-05-01T03:33:07.647Z,78.57
2023-05-01T03:35:34.356Z,77.29
2023-05-01T03:38:00.852Z,76.91
2023-05-01T03:41:02.781Z,77.72
2023-05-01T03:43:41.236Z,78.74
2023-05-01T03:46:16.076Z,78.39
2023-05-01T03:48:43.876Z,77.72
2023-05-01T03:51:10.470Z,79.33
2023-05-01T03:53:37.742Z,78.63
2023-05-01T03:56:06.222Z,79.59
2023-05-01T03:58:32.682Z,80.08
2023-05-01T04:00:59.202Z,79.76
2023-05-01T04:03:25.808Z,78.29
2023-05-01T04:05:54.849Z,78.30
2023-05-01T04:08:21.374Z,77.48
2023-05-01T04:10:47.793Z,79.07
2023-05-01T04:13:14.281Z,78.44
2023-05-01T04:15:44.530Z,76.37
2023-05-01T04:18:11.192Z,76.18
2023-05-01T04:20:37.678Z,75.58
2023-05-01T04:23:05.420Z,76.27
2023-05-01T04:25:31.871Z,75.76
2023-05-01T04:28:05.101Z,75.38
2023-05-01T04:30:31.752Z,74.05
2023-05-01T04:32:58.280Z,74.42
2023-05-01T04:35:24.824Z,74.01
2023-05-01T04:37:51.387Z,73.86
2023-05-01T04:40:19.168Z,75.39
2023-05-01T04:42:45.564Z,72.07
2023-05-01T04:45:14.082Z,73.64
2023-05-01T04:47:40.639Z,74.19
2023-05-01T04:50:07.489Z,72.49
2023-05-01T04:52:34.566Z,71.16
2023-05-01T04:55:02.680Z,70.66
2023-05-01T04:57:32.658Z,71.63
2023-05-01T05:00:01.621Z,72.20
2023-05-01T05:02:29.575Z,71.33
2023-05-01T05:04:56.290Z,72.37
2023-05-01T05:07:23.448Z,72.48
2023-05-01T05:10:19.366Z,70.37
2023-05-01T05:12:59.842Z,72.27
2023-05-01T05:15:26.999Z,69.03
2023-05-01T05:17:56.352Z,67.40
2023-05-01T05:20:24.129Z,65.77
2023-05-01T05:22:50.893Z,63.48
2023-05-01T05:25:22.036Z,63.77
2023-05-01T05:27:48.654Z,65.47
2023-05-01T05:30:16.806Z,62.63
2023-05-01T05:32:46.614Z,60.19
2023-05-01T05:35:17.086Z,56.59
2023-05-01T05:37:46.060Z,58.76
2023-05-01T05:40:13.532Z,59.99
2023-05-01T05:42:51.525Z,58.82
2023-05-01T05:45:26.290Z,59.14
2023-05-01T05:47:53.270Z,60.18
2023-05-01T05:50:20.196Z,61.30
2023-05-01T05:52:47.925Z,59.14
2023-05-01T05:55:15.259Z,61.17
2023-05-01T05:57:52.861Z,60.02
2023-05-01T06:00:20.996Z,62.43
2023-05-01T06:02:50.191Z,61.32
2023-05-01T06:05:18.486Z,63.16
2023-05-01T06:07:45.333Z,65.01
2023-05-01T06:10:11.848Z,62.28
2023-05-01T06:12:41.375Z,60.08
2023-05-01T06:15:15.192Z,60.36
2023-05-01T06:17:45.824Z,61.66
2023-05-01T06:20:13.073Z,59.13
2023-05-01T06:22:40.155Z,60.42
2023-05-01T06:25:17.082Z,59.30
2023-05-01T06:27:44.583Z,59.58
2023-05-01T06:30:11.729Z,60.73
2023-05-01T06:32:40.908Z,58.08
2023-05-01T06:35:10.031Z,56.71
2023-05-01T06:37:36.630Z,55.07
2023-05-01T06:40:03.985Z,54.55
2023-05-01T06:42:30.737Z,53.46
2023-05-01T06:45:01.124Z,51.82
2023-05-01T06:47:28.028Z,51.62
2023-05-01T06:49:54.696Z,53.62
2023-05-01T06:52:22.714Z,53.03
2023-05-01T06:54:49.435Z,53.53
2023-05-01T06:57:16.312Z,51.35
2023-05-01T06:59:42.915Z,52.40
2023-05-01T07:02:09.588Z,53.76
2023-05-01T07:04:36.095Z,51.82
2023-05-01T07:07:02.649Z,50.66
2023-05-01T07:09:30.626Z,50.77
2023-05-01T07:11:58.623Z,50.67
2023-05-01T07:14:25.302Z,51.94
2023-05-01T07:16:54.742Z,49.43
2023-05-01T07:19:21.391Z,52.00
2023-05-01T07:21:48.019Z,50.63
2023-05-01T07:24:14.868Z,51.74
2023-05-01T07:26:42.732Z,50.38
2023-05-01T07:29:11.521Z,47.79
2023-05-01T07:31:38.410Z,46.62
2023-05-01T07:34:05.357Z,48.58
2023-05-01T07:36:32.077Z,49.58
2023-05-01T07:38:58.754Z,46.90
2023-05-01T07:41:25.559Z,49.58
2023-05-01T07:43:54.969Z,47.99
2023-05-01T07:46:21.810Z,45.09
2023-05-01T07:48:48.734Z,47.45
2023-05-01T07:51:15.682Z,47.43
2023-05-01T07:53:42.322Z,47.83
2023-05-01T07:56:09.685Z,47.60
2023-05-01T07:58:36.881Z,46.27
2023-05-01T08:01:06.215Z,45.00
2023-05-01T08:03:33.010Z,44.38
2023-05-01T08:05:59.764Z,43.09
2023-05-01T08:08:26.310Z,43.98
2023-05-01T08:10:55.152Z,44.63
2023-05-01T08:13:22.037Z,45.39
2023-05-01T08:15:56.332Z,44.99
2023-05-01T08:18:26.589Z,42.42
2023-05-01T08:20:53.252Z,45.62
2023-05-01T08:23:34.920Z,43.08
2023-05-01T08:26:03.700Z,47.46
2023-05-01T08:28:30.721Z,44.77
2023-05-01T08:31:00.092Z,45.77
2023-05-01T08:33:29.795Z,46.35
2023-05-01T08:36:00.837Z,44.93
2023-05-01T08:38:27.550Z,42.64
2023-05-01T08:40:57.271Z,45.52
2023-05-01T08:43:28.143Z,44.50
2023-05-01T08:46:16.283Z,38.92
2023-05-01T08:48:46.079Z,43.03
2023-05-01T08:51:16.220Z,45.75
2023-05-01T08:53:50.889Z,43.40
2023-05-01T08:56:21.671Z,38.50
2023-05-01T08:58:50.131Z,37.59
2023-05-01T09:01:22.344Z,38.15
2023-05-01T09:03:52.840Z,40.04
2023-05-01T09:06:21.053Z,38.53
2023-05-01T09:08:50.257Z,41.97
2023-05-01T09:11:18.614Z,42.27
2023-05-01T09:13:45.363Z,42.88
2023-05-01T09:16:12.387Z,37.58
2023-05-01T09:18:39.350Z,38.83
2023-05-01T09:21:07.398Z,35.68
2023-05-01T09:23:35.512Z,38.47
2023-05-01T09:26:06.939Z,36.81
2023-05-01T09:28:39.930Z,40.85
2023-05-01T09:31:20.929Z,37.11
2023-05-01T09:33:58.812Z,33.43
2023-05-01T09:36:28.245Z,36.01
2023-05-01T09:38:54.709Z,39.07
2023-05-01T09:41:21.325Z,36.27
2023-05-01T09:43:52.180Z,36.11
2023-05-01T09:46:19.104Z,36.13
2023-05-01T09:48:53.142Z,36.00
2023-05-01T09:51:21.296Z,33.41
2023-05-01T09:53:49.828Z,38.63
2023-05-01T09:56:16.307Z,38.05
2023-05-01T09:58:45.997Z,35.36
2023-05-01T10:01:12.515Z,35.66
2023-05-01T10:03:39.325Z,38.59
2023-05-01T10:06:11.884Z,37.04
2023-05-01T10:08:45.896Z,34.88
2023-05-01T10:11:14.118Z,34.44
2023-05-01T10:13:40.904Z,33.83
2023-05-01T10:16:23.081Z,36.51
2023-05-01T10:18:49.731Z,32.96
2023-05-01T10:21:16.326Z,34.12
2023-05-01T10:23:42.895Z,33.30
2023-05-01T10:26:16.292Z,32.95
2023-05-01T10:28:44.209Z,36.03
2023-05-01T10:31:12.799Z,34.88
2023-05-01T10:33:40.390Z,34.55
2023-05-01T10:36:11.728Z,33.80
2023-05-01T10:38:41.182Z,35.24
2023-05-01T10:41:07.724Z,37.71
2023-05-01T10:43:35.576Z,33.65
2023-05-01T10:46:27.289Z,32.32
2023-05-01T10:48:55.073Z,34.09
2023-05-01T10:51:25.671Z,31.00
2023-05-01T10:54:22.558Z,33.14
2023-05-01T10:56:49.393Z,34.96
2023-05-01T10:59:17.188Z,32.62
2023-05-01T11:01:44.929Z,29.96
2023-05-01T11:04:45.146Z,30.64
2023-05-01T11:07:15.595Z,32.57
2023-05-01T11:09:43.220Z,28.97
2023-05-01T11:12:11.490Z,30.81
2023-05-01T11:15:05.209Z,31.85
2023-05-01T11:17:47.730Z,33.94
2023-05-01T11:20:46.925Z,31.17
2023-05-01T11:23:20.698Z,31.67
2023-05-01T11:25:47.857Z,32.36
2023-05-01T11:28:19.139Z,30.60
2023-05-01T11:30:47.012Z,29.46
2023-05-01T11:33:14.229Z,30.60
2023-05-01T11:35:41.419Z,30.88
2023-05-01T11:38:16.980Z,32.07
2023-05-01T11:40:43.469Z,31.00
2023-05-01T11:43:09.964Z,30.15
2023-05-01T11:45:37.456Z,31.35
2023-05-01T11:48:14.556Z,32.90
2023-05-01T11:50:41.234Z,33.10
2023-05-01T11:53:11.229Z,33.50
2023-05-01T11:55:37.734Z,34.81
2023-05-01T11:58:04.571Z,32.34
2023-05-01T12:00:33.894Z,33.12
2023-05-01T12:03:02.716Z,33.76
2023-05-01T12:05:32.215Z,31.20
2023-05-01T12:10:40.571Z,31.59
2023-05-01T12:13:08.824Z,33.21
2023-05-01T12:15:37.020Z,32.68
2023-05-01T12:18:04.362Z,31.07
2023-05-01T12:20:36.558Z,30.82
2023-05-01T12:23:03.289Z,34.17
2023-05-01T12:25:30.132Z,30.77
2023-05-01T12:27:57.186Z,31.48
2023-05-01T12:30:27.811Z,31.82
2023-05-01T12:32:54.929Z,32.10
2023-05-01T12:35:22.089Z,32.06
2023-05-01T12:37:49.844Z,32.11
2023-05-01T12:40:16.457Z,32.27
2023-05-01T12:42:42.870Z,34.14
2023-05-01T12:45:10.470Z,34.37
2023-05-01T12:47:37.040Z,31.72
2023-05-01T12:50:05.038Z,33.67
2023-05-01T12:52:32.400Z,34.29
2023-05-01T12:55:04.406Z,33.87
2023-05-01T12:57:31.403Z,34.61
2023-05-01T13:00:03.035Z,32.84
2023-05-01T13:02:30.858Z,36.69
2023-05-01T13:05:06.267Z,33.08
2023-05-01T13:07:32.783Z,35.37
2023-05-01T13:09:59.778Z,37.42
2023-05-01T13:12:28.522Z,35.10
2023-05-01T13:14:55.323Z,35.09
2023-05-01T13:17:23.588Z,36.69
2023-05-01T13:19:53.755Z,36.38
2023-05-01T13:22:28.647Z,34.70
2023-05-01T13:24:55.172Z,33.12
2023-05-01T13:27:22.113Z,32.85
2023-05-01T13:29:53.571Z,32.96
2023-05-01T13:32:20.138Z,35.41
2023-05-01T13:34:46.626Z,37.08
2023-05-01T13:37:13.349Z,35.72
2023-05-01T13:39:41.258Z,35.49
2023-05-01T13:42:07.708Z,34.40
2023-05-01T13:44:42.769Z,38.28
2023-05-01T13:47:15.035Z,34.95
2023-05-01T13:49:42.177Z,34.70
2023-05-01T13:52:11.153Z,34.69
2023-05-01T13:54:40.328Z,37.24
2023-05-01T13:57:06.717Z,39.94
2023-05-01T13:59:38.304Z,35.79
2023-05-01T14:02:18.903Z,34.87
2023-05-01T14:04:45.529Z,32.88
2023-05-01T14:07:17.004Z,34.44
2023-05-01T14:09:44.476Z,38.21
2023-05-01T14:12:13.241Z,37.68
2023-05-01T14:14:47.290Z,36.41
2023-05-01T14:17:15.282Z,34.73
2023-05-01T14:19:41.906Z,35.46
2023-05-01T14:22:08.340Z,37.82
2023-05-01T14:24:36.759Z,36.43
2023-05-01T14:27:03.289Z,40.22
2023-05-01T14:29:29.882Z,35.08
2023-05-01T14:31:56.259Z,35.78
2023-05-01T14:34:25.913Z,35.70
2023-05-01T14:36:54.654Z,39.10
2023-05-01T14:39:21.133Z,33.65
2023-05-01T14:41:47.872Z,36.64
2023-05-01T14:44:15.716Z,37.60
2023-05-01T14:46:44.293Z,37.57
2023-05-01T14:49:17.145Z,38.92
2023-05-01T14:51:44.917Z,37.15
2023-05-01T14:54:12.461Z,38.75
2023-05-01T14:56:39.173Z,42.47
2023-05-01T14:59:05.717Z,34.52
2023-05-01T15:01:32.203Z,39.82
2023-05-01T15:03:59.921Z,35.11
2023-05-01T15:06:28.391Z,38.27
2023-05-01T15:08:56.219Z,40.52
2023-05-01T15:11:22.664Z,41.96
2023-05-01T15:13:49.097Z,39.05
2023-05-01T15:16:15.898Z,39.04
2023-05-01T15:18:42.542Z,41.81
2023-05-01T15:21:08.996Z,40.45
2023-05-01T15:23:35.466Z,40.66
2023-05-01T15:26:03.425Z,37.59
2023-05-01T15:28:29.972Z,38.88
2023-05-01T15:30:56.414Z,36.94
2023-05-01T15:33:22.864Z,35.76
2023-05-01T15:35:49.299Z,37.05
2023-05-01T15:38:15.704Z,39.65
2023-05-01T15:40:43.371Z,41.63
2023-05-01T15:43:11.187Z,40.29
2023-05-01T15:45:37.740Z,43.28
2023-05-01T15:48:04.469Z,46.76
2023-05-01T15:50:31.076Z,44.94
2023-05-01T15:52:57.520Z,44.23
2023-05-01T15:55:23.875Z,46.60
2023-05-01T15:57:50.293Z,44.38
2023-05-01T16:00:18.893Z,47.11
2023-05-01T16:02:45.464Z,48.35
2023-05-01T16:05:13.237Z,47.67
2023-05-01T16:07:39.666Z,45.58
2023-05-01T16:10:08.050Z,48.78
2023-05-01T16:12:34.620Z,47.75
2023-05-01T16:15:01.483Z,48.34
2023-05-01T16:17:31.581Z,45.83
2023-05-01T16:20:00.286Z,48.56
2023-05-01T16:22:27.716Z,45.10
2023-05-01T16:24:54.156Z,47.56
2023-05-01T16:27:20.733Z,46.72
2023-05-01T16:29:47.250Z,51.18
2023-05-01T16:32:16.318Z,50.51
2023-05-01T16:34:44.310Z,47.05
2023-05-01T16:37:13.218Z,51.85
2023-05-01T16:39:39.651Z,51.13
2023-05-01T16:42:06.098Z,48.48
2023-05-01T16:44:35.530Z,49.42
2023-05-01T16:47:02.056Z,50.25
2023-05-01T16:49:28.578Z,48.62
2023-05-01T16:51:56.420Z,48.16
2023-05-01T16:54:23.863Z,50.57
2023-05-01T16:56:50.335Z,46.65
2023-05-01T16:59:16.764Z,46.59
2023-05-01T17:04:22.557Z,50.30
2023-05-01T17:06:58.741Z,49.79
2023-05-01T17:09:25.403Z,54.60
2023-05-01T17:11:56.046Z,52.59
2023-05-01T17:14:22.715Z,48.48
2023-05-01T17:16:50.471Z,50.49
2023-05-01T17:19:19.830Z,51.88
2023-05-01T17:21:46.690Z,52.33
2023-05-01T17:24:14.723Z,50.29
2023-05-01T17:26:41.670Z,55.17
2023-05-01T17:29:08.462Z,50.61
2023-05-01T17:31:35.018Z,54.25
2023-05-01T17:34:01.597Z,58.16
2023-05-01T17:36:29.375Z,52.40
2023-05-01T17:38:58.307Z,54.59
2023-05-01T17:42:02.762Z,58.34
2023-05-01T17:44:39.017Z,52.06
2023-05-01T17:47:16.488Z,59.60
2023-05-01T17:49:43.693Z,59.38
2023-05-01T17:55:24.722Z,56.82
2023-05-01T17:58:19.574Z,56.47
2023-05-01T18:01:03.033Z,58.21
2023-05-01T18:04:01.951Z,61.29
2023-05-01T18:06:45.073Z,56.45
2023-05-01T18:12:56.570Z,62.18
2023-05-01T18:15:46.629Z,59.49
2023-05-01T18:18:50.922Z,61.80
2023-05-01T18:21:30.221Z,57.00
2023-05-01T18:24:07.680Z,62.59
2023-05-01T18:26:59.610Z,60.91
2023-05-01T18:29:58.485Z,59.51
2023-05-01T18:32:47.736Z,60.49
2023-05-01T18:38:13.803Z,58.63
2023-05-01T18:40:51.432Z,56.51
2023-05-01T18:43:22.788Z,57.91
2023-05-01T18:45:49.466Z,58.13
2023-05-01T18:48:16.210Z,56.29
2023-05-01T18:50:54.124Z,55.83
2023-05-01T18:53:27.764Z,57.55
2023-05-01T18:55:54.451Z,60.40
2023-05-01T18:58:21.274Z,58.30
2023-05-01T19:00:47.839Z,60.60
2023-05-01T19:03:23.510Z,60.39
2023-05-01T19:05:51.598Z,58.06
2023-05-01T19:08:19.290Z,59.58
2023-05-01T19:10:46.098Z,60.90
2023-05-01T19:13:12.731Z,61.78
2023-05-01T19:15:39.346Z,62.81
2023-05-01T19:18:08.516Z,62.58
2023-05-01T19:20:35.324Z,60.71
2023-05-01T19:23:03.577Z,63.61
2023-05-01T19:25:30.157Z,63.40
2023-05-01T19:28:00.302Z,62.71
2023-05-01T19:30:29.877Z,64.01
2023-05-01T19:32:56.911Z,62.68
2023-05-01T19:35:35.723Z,63.37
2023-05-01T19:41:33.678Z,63.12
2023-05-01T19:44:11.549Z,65.00
2023-05-01T19:46:38.168Z,64.18
2023-05-01T19:49:04.763Z,61.27
2023-05-01T19:51:31.362Z,65.62
2023-05-01T19:54:02.143Z,62.52
2023-05-01T19:56:28.746Z,63.98
2023-05-01T19:58:57.174Z,63.17
2023-05-01T20:01:23.884Z,62.57
2023-05-01T20:03:50.543Z,64.87
2023-05-01T20:06:17.555Z,61.78
2023-05-01T20:08:44.085Z,63.45
2023-05-01T20:11:12.022Z,62.63
2023-05-01T20:13:38.484Z,65.10
2023-05-01T20:16:05.529Z,62.71
2023-05-01T20:18:32.185Z,63.78
2023-05-01T20:20:58.775Z,64.63
2023-05-01T20:23:25.297Z,62.35
2023-05-01T20:25:51.811Z,61.10
2023-05-01T20:28:19.991Z,65.15
2023-05-01T20:30:47.854Z,67.56
2023-05-01T20:33:16.369Z,66.28
2023-05-01T20:35:43.369Z,63.09
2023-05-01T20:38:09.884Z,61.22
2023-05-01T20:40:37.382Z,61.84
2023-05-01T20:43:04.122Z,60.70
2023-05-01T20:45:33.066Z,61.05
2023-05-01T20:48:01.029Z,62.17
2023-05-01T20:50:27.639Z,63.73
2023-05-01T20:52:56.208Z,64.02
2023-05-01T20:55:23.755Z,63.77
2023-05-01T20:57:51.178Z,65.27
2023-05-01T21:00:18.088Z,65.96
2023-05-01T21:02:46.211Z,65.66
2023-05-01T21:05:15.101Z,65.46
2023-05-01T21:07:41.847Z,66.24
2023-05-01T21:10:10.565Z,67.21
2023-05-01T21:12:38.205Z,66.57
2023-05-01T21:15:05.647Z,66.00
2023-05-01T21:17:33.375Z,67.81
2023-05-01T21:20:01.752Z,68.33
2023-05-01T21:22:28.738Z,67.39
2023-05-01T21:24:57.850Z,67.82
2023-05-01T21:27:26.403Z,68.46
2023-05-01T21:29:56.064Z,66.58
2023-05-01T21:32:29.179Z,68.19
2023-05-01T21:34:55.832Z,68.60
2023-05-01T21:37:24.027Z,68.36
2023-05-01T21:39:51.118Z,70.15
2023-05-01T21:42:17.629Z,70.41
2023-05-01T21:44:44.243Z,68.83
2023-05-01T21:47:11.503Z,69.78
2023-05-01T21:49:39.338Z,72.63
2023-05-01T21:52:06.292Z,72.90
2023-05-01T21:54:35.706Z,71.97
2023-05-01T21:57:03.208Z,73.20
2023-05-01T21:59:34.639Z,71.95
2023-05-01T22:02:04.286Z,73.07
2023-05-01T22:04:30.898Z,75.44
2023-05-01T22:06:57.413Z,74.57
2023-05-01T22:09:23.983Z,72.19
2023-05-01T22:11:51.888Z,75.01
2023-05-01T22:14:18.394Z,74.49
2023-05-01T22:16:45.000Z,74.27
2023-05-01T22:19:14.129Z,72.88
2023-05-01T22:21:40.787Z,75.32
2023-05-01T22:24:07.357Z,73.09
2023-05-01T22:26:33.885Z,72.58
2023-05-01T22:29:01.815Z,73.34
2023-05-01T22:31:28.532Z,73.28
2023-05-01T22:33:55.201Z,72.97
2023-05-01T22:36:21.798Z,73.05
2023-05-01T22:38:54.706Z,74.39
2023-05-01T22:41:21.284Z,72.31
2023-05-01T22:43:47.828Z,72.54
2023-05-01T22:46:15.854Z,72.83
2023-05-01T22:48:42.541Z,72.93
2023-05-01T22:51:09.054Z,72.80
2023-05-01T22:53:35.647Z,73.99
2023-05-01T22:56:02.252Z,73.91
2023-05-01T22:58:29.008Z,72.53
2023-05-01T23:00:55.626Z,73.13
2023-05-01T23:03:23.496Z,72.61
2023-05-01T23:05:50.932Z,71.99
2023-05-01T23:08:17.469Z,72.85
2023-05-01T23:10:43.865Z,72.80
2023-05-01T23:13:17.069Z,72.36
2023-05-01T23:15:45.529Z,73.31
2023-05-01T23:18:14.036Z,72.14
2023-05-01T23:20:43.786Z,74.55
2023-05-01T23:23:13.612Z,72.74
2023-05-01T23:25:45.058Z,75.31
2023-05-01T23:28:12.553Z,73.46
2023-05-01T23:30:40.504Z,74.03
2023-05-01T23:33:10.515Z,73.76
2023-05-01T23:35:37.001Z,74.91
2023-05-01T23:38:04.741Z,74.33
2023-05-01T23:40:31.191Z,73.68
2023-05-01T23:42:57.686Z,73.65
2023-05-01T23:45:24.145Z,74.15
2023-05-01T23:47:50.738Z,73.09
2023-05-01T23:50:17.415Z,75.30
2023-05-01T23:52:43.983Z,74.21
2023-05-01T23:55:11.723Z,74.84
2023-05-01T23:57:38.408Z,76.37
